Terminal Aerodrome Forecast
Issued by NWS Memphis, TN

Home | Current Version | Previous Version | Text Only | Print | Product List | Glossary On
Versions: 1 2 3 4 5 6 7 8 9 10 11 12 13 14
000
FTUS44 KMEG 300500
TAFMKL
TAF
KMKL 300523Z 3006/3106 16003KT P6SM BKN150
     FM301000 19005KT P6SM VCSH SCT060 OVC150
     FM301700 20008KT P6SM -SHRA VCTS SCT045 BKN060CB
     FM310100 17006KT 5SM -SHRA BR VCTS SCT015 BKN025CB=

USA.gov is the U.S. government's official web portal to all federal, state and local government web resources and services.